createdAt,value
2018-07-16T00:00:25.879Z,3.47
2018-07-16T00:00:58.563Z,3.80
2018-07-16T00:01:31.263Z,3.67
2018-07-16T00:02:04.035Z,3.72
2018-07-16T00:02:36.796Z,3.35
2018-07-16T00:03:09.595Z,4.10
2018-07-16T00:03:42.279Z,3.87
2018-07-16T00:04:14.927Z,4.10
2018-07-16T00:04:47.615Z,4.00
2018-07-16T00:05:20.302Z,4.20
2018-07-16T00:05:53.003Z,4.00
2018-07-16T00:06:25.666Z,4.15
2018-07-16T00:06:58.359Z,3.42
2018-07-16T00:07:31.011Z,4.15
2018-07-16T00:08:03.958Z,3.60
2018-07-16T00:08:36.632Z,4.15
2018-07-16T00:09:09.370Z,3.92
2018-07-16T00:09:41.942Z,4.00
2018-07-16T00:10:14.659Z,3.95
2018-07-16T00:10:47.407Z,3.85
2018-07-16T00:11:20.106Z,4.05
2018-07-16T00:11:52.775Z,4.08
2018-07-16T00:12:25.599Z,4.00
2018-07-16T00:12:58.262Z,4.10
2018-07-16T00:13:30.813Z,3.83
2018-07-16T00:14:03.507Z,4.03
2018-07-16T00:14:36.218Z,3.83
2018-07-16T00:15:08.904Z,3.98
2018-07-16T00:15:41.576Z,3.70
2018-07-16T00:16:14.247Z,4.03
2018-07-16T00:16:46.967Z,3.60
2018-07-16T00:17:19.683Z,4.00
2018-07-16T00:17:52.482Z,4.10
2018-07-16T00:18:25.180Z,3.95
2018-07-16T00:18:57.975Z,3.72
2018-07-16T00:19:31.122Z,4.12
2018-07-16T00:20:04.231Z,4.22
2018-07-16T00:20:36.918Z,4.12
2018-07-16T00:21:09.571Z,3.85
2018-07-16T00:21:42.146Z,3.30
2018-07-16T00:22:14.855Z,3.90
2018-07-16T00:22:47.559Z,3.90
2018-07-16T00:23:20.244Z,3.60
2018-07-16T00:23:52.978Z,3.98
2018-07-16T00:24:25.700Z,3.27
2018-07-16T00:24:58.362Z,3.90
2018-07-16T00:25:30.988Z,4.50
2018-07-16T00:26:03.640Z,3.92
2018-07-16T00:26:36.310Z,4.53
2018-07-16T00:27:09.083Z,4.28
2018-07-16T00:27:41.807Z,3.72
2018-07-16T00:28:14.463Z,4.15
2018-07-16T00:28:47.143Z,3.60
2018-07-16T00:29:19.835Z,4.85
2018-07-16T00:29:52.782Z,5.30
2018-07-16T00:30:25.495Z,3.70
2018-07-16T00:30:58.170Z,4.28
2018-07-16T00:31:30.878Z,3.98
2018-07-16T00:32:03.599Z,4.25
2018-07-16T00:32:36.335Z,4.20
2018-07-16T00:33:09.059Z,3.80
2018-07-16T00:33:41.650Z,3.98
2018-07-16T00:34:14.314Z,4.03
2018-07-16T00:34:46.970Z,4.15
2018-07-16T00:35:19.538Z,3.85
2018-07-16T00:35:52.082Z,3.60
2018-07-16T00:36:24.666Z,3.47
2018-07-16T00:36:57.265Z,3.98
2018-07-16T00:37:29.999Z,4.40
2018-07-16T00:38:02.795Z,4.35
2018-07-16T00:38:35.561Z,4.08
2018-07-16T00:39:08.211Z,4.00
2018-07-16T00:39:40.931Z,3.77
2018-07-16T00:40:13.589Z,3.80
2018-07-16T00:40:46.230Z,4.00
2018-07-16T00:41:18.903Z,3.42
2018-07-16T00:41:51.595Z,4.00
2018-07-16T00:42:24.326Z,3.90
2018-07-16T00:42:56.994Z,3.90
2018-07-16T00:43:29.642Z,3.90
2018-07-16T00:44:02.403Z,3.65
2018-07-16T00:44:35.063Z,4.05
2018-07-16T00:45:07.763Z,4.00
2018-07-16T00:45:40.422Z,4.35
2018-07-16T00:46:13.078Z,4.08
2018-07-16T00:46:45.747Z,3.70
2018-07-16T00:47:18.506Z,4.15
2018-07-16T00:47:51.262Z,3.52
2018-07-16T00:48:23.991Z,3.42
2018-07-16T00:48:56.670Z,3.95
2018-07-16T00:49:29.343Z,4.05
2018-07-16T00:50:02.027Z,3.52
2018-07-16T00:50:34.719Z,4.83
2018-07-16T00:51:07.439Z,4.00
2018-07-16T00:51:40.110Z,4.33
2018-07-16T00:52:12.755Z,4.95
2018-07-16T00:52:45.431Z,3.67
2018-07-16T00:53:18.115Z,3.85
2018-07-16T00:53:50.850Z,3.87
2018-07-16T00:54:23.558Z,3.70
2018-07-16T00:54:56.266Z,3.70
2018-07-16T00:55:28.943Z,4.05
2018-07-16T00:56:01.612Z,4.50
2018-07-16T00:56:34.320Z,4.15
2018-07-16T00:57:07.030Z,3.85
2018-07-16T00:57:39.665Z,3.92
2018-07-16T00:58:12.335Z,4.55
2018-07-16T00:58:45.007Z,4.80
2018-07-16T00:59:17.756Z,4.12
2018-07-16T00:59:50.490Z,4.78
2018-07-16T01:00:23.186Z,4.25
2018-07-16T01:00:55.851Z,4.42
2018-07-16T01:01:28.502Z,3.90
2018-07-16T01:02:01.222Z,4.75
2018-07-16T01:02:33.930Z,4.03
2018-07-16T01:03:06.615Z,4.40
2018-07-16T01:03:39.259Z,4.12
2018-07-16T01:04:11.928Z,5.35
2018-07-16T01:04:44.592Z,4.40
2018-07-16T01:05:17.153Z,4.40
2018-07-16T01:05:49.942Z,4.33
2018-07-16T01:06:23.015Z,4.50
2018-07-16T01:06:55.687Z,4.58
2018-07-16T01:07:28.362Z,4.20
2018-07-16T01:08:00.921Z,4.25
2018-07-16T01:08:33.637Z,4.15
2018-07-16T01:09:06.779Z,4.58
2018-07-16T01:09:39.459Z,4.10
2018-07-16T01:10:12.143Z,4.72
2018-07-16T01:10:44.834Z,4.00
2018-07-16T01:11:17.534Z,4.70
2018-07-16T01:11:50.182Z,4.90
2018-07-16T01:12:22.826Z,4.35
2018-07-16T01:12:55.543Z,4.92
2018-07-16T01:13:28.198Z,4.50
2018-07-16T01:14:00.894Z,4.70
2018-07-16T01:14:33.614Z,4.12
2018-07-16T01:15:06.299Z,4.60
2018-07-16T01:15:38.947Z,4.22
2018-07-16T01:16:11.622Z,4.87
2018-07-16T01:16:44.435Z,4.70
2018-07-16T01:17:17.107Z,5.33
2018-07-16T01:17:49.734Z,4.45
2018-07-16T01:18:22.398Z,5.70
2018-07-16T01:18:55.071Z,4.47
2018-07-16T01:19:27.652Z,5.35
2018-07-16T01:20:00.296Z,5.72
2018-07-16T01:20:32.857Z,4.55
2018-07-16T01:21:05.615Z,5.10
2018-07-16T01:21:38.283Z,5.03
2018-07-16T01:22:10.970Z,4.80
2018-07-16T01:22:43.607Z,4.92
2018-07-16T01:23:16.311Z,4.87
2018-07-16T01:23:48.963Z,4.03
2018-07-16T01:24:21.630Z,4.20
2018-07-16T01:24:54.303Z,5.70
2018-07-16T01:25:27.098Z,4.65
2018-07-16T01:25:59.902Z,4.95
2018-07-16T01:26:32.567Z,5.00
2018-07-16T01:27:05.246Z,5.47
2018-07-16T01:27:37.937Z,5.10
2018-07-16T01:28:10.575Z,4.97
2018-07-16T01:28:43.358Z,5.55
2018-07-16T01:29:16.006Z,4.83
2018-07-16T01:29:48.702Z,4.72
2018-07-16T01:30:21.374Z,4.60
2018-07-16T01:30:53.941Z,4.85
2018-07-16T01:31:26.526Z,4.33
2018-07-16T01:31:59.170Z,5.75
2018-07-16T01:32:31.906Z,5.10
2018-07-16T01:33:04.759Z,4.30
2018-07-16T01:33:37.503Z,4.42
2018-07-16T01:34:10.199Z,5.22
2018-07-16T01:34:42.842Z,4.55
2018-07-16T01:35:15.481Z,4.55
2018-07-16T01:35:48.158Z,4.35
2018-07-16T01:36:20.803Z,4.47
2018-07-16T01:36:53.427Z,4.65
2018-07-16T01:37:26.363Z,5.45
2018-07-16T01:38:00.134Z,6.05
2018-07-16T01:38:33.206Z,4.90
2018-07-16T01:39:06.007Z,5.05
2018-07-16T01:39:38.715Z,4.92
2018-07-16T01:40:11.367Z,4.35
2018-07-16T01:40:44.043Z,3.98
2018-07-16T01:41:16.734Z,4.90
2018-07-16T01:41:49.405Z,4.37
2018-07-16T01:42:22.054Z,4.55
2018-07-16T01:42:54.738Z,4.80
2018-07-16T01:43:27.450Z,4.35
2018-07-16T01:44:00.159Z,5.28
2018-07-16T01:44:32.821Z,4.30
2018-07-16T01:45:05.544Z,4.80
2018-07-16T01:45:38.282Z,4.50
2018-07-16T01:46:10.950Z,4.55
2018-07-16T01:46:43.610Z,4.08
2018-07-16T01:47:16.278Z,4.58
2018-07-16T01:47:48.980Z,4.80
2018-07-16T01:48:21.678Z,5.03
2018-07-16T01:48:54.334Z,5.10
2018-07-16T01:49:27.026Z,4.03
2018-07-16T01:49:59.691Z,4.40
2018-07-16T01:50:32.338Z,4.55
2018-07-16T01:51:05.030Z,6.00
2018-07-16T01:51:37.686Z,5.60
2018-07-16T01:52:10.318Z,5.58
2018-07-16T01:52:42.965Z,4.72
2018-07-16T01:53:15.687Z,4.53
2018-07-16T01:53:48.459Z,5.25
2018-07-16T01:54:21.166Z,4.95
2018-07-16T01:54:53.863Z,5.95
2018-07-16T01:55:26.579Z,7.10
2018-07-16T01:55:59.263Z,6.30
2018-07-16T01:56:31.903Z,5.53
2018-07-16T01:57:04.562Z,5.87
2018-07-16T01:57:37.203Z,5.62
2018-07-16T01:58:10.663Z,5.35
2018-07-16T01:58:43.306Z,5.05
2018-07-16T01:59:16.019Z,5.03
2018-07-16T01:59:48.687Z,5.10
2018-07-16T02:00:21.376Z,4.60
2018-07-16T02:00:56.733Z,4.42
2018-07-16T02:01:29.446Z,3.87
2018-07-16T02:02:02.130Z,4.55
2018-07-16T02:02:34.758Z,4.45
2018-07-16T02:03:07.758Z,4.58
2018-07-16T02:03:40.414Z,4.28
2018-07-16T02:04:13.058Z,4.40
2018-07-16T02:04:45.723Z,4.55
2018-07-16T02:05:18.382Z,5.20
2018-07-16T02:05:51.154Z,4.90
2018-07-16T02:06:23.807Z,4.65
2018-07-16T02:06:56.490Z,4.40
2018-07-16T02:07:29.222Z,5.42
2018-07-16T02:08:01.883Z,4.70
2018-07-16T02:08:34.550Z,4.78
2018-07-16T02:09:07.234Z,4.62
2018-07-16T02:09:39.883Z,4.90
2018-07-16T02:10:12.719Z,4.67
2018-07-16T02:10:45.367Z,4.55
2018-07-16T02:11:18.046Z,4.75
2018-07-16T02:11:50.687Z,4.95
2018-07-16T02:12:23.426Z,4.22
2018-07-16T02:12:56.082Z,4.67
2018-07-16T02:13:28.790Z,3.65
2018-07-16T02:14:01.479Z,4.70
2018-07-16T02:14:34.111Z,4.78
2018-07-16T02:15:06.842Z,4.40
2018-07-16T02:15:39.842Z,4.92
2018-07-16T02:16:12.500Z,4.40
2018-07-16T02:16:45.179Z,4.65
2018-07-16T02:17:17.874Z,5.22
2018-07-16T02:17:50.594Z,5.00
2018-07-16T02:18:23.370Z,4.78
2018-07-16T02:18:56.015Z,4.87
2018-07-16T02:19:28.735Z,5.20
2018-07-16T02:20:01.829Z,5.22
2018-07-16T02:20:34.558Z,5.10
2018-07-16T02:21:07.230Z,5.45
2018-07-16T02:21:39.862Z,5.50
2018-07-16T02:22:12.546Z,4.78
2018-07-16T02:22:45.239Z,5.58
2018-07-16T02:23:17.906Z,5.12
2018-07-16T02:23:50.558Z,5.10
2018-07-16T02:24:23.262Z,4.85
2018-07-16T02:24:55.932Z,3.85
2018-07-16T02:25:28.574Z,5.00
2018-07-16T02:26:01.242Z,5.25
2018-07-16T02:26:33.910Z,4.40
2018-07-16T02:27:06.555Z,4.80
2018-07-16T02:27:39.262Z,4.83
2018-07-16T02:28:11.934Z,5.05
2018-07-16T02:28:44.559Z,4.95
2018-07-16T02:29:17.259Z,5.22
2018-07-16T02:29:49.954Z,5.35
2018-07-16T02:30:22.630Z,5.03
2018-07-16T02:30:55.278Z,4.50
2018-07-16T02:31:27.930Z,4.95
2018-07-16T02:32:00.579Z,4.85
2018-07-16T02:32:33.382Z,4.97
2018-07-16T02:33:06.631Z,4.90
2018-07-16T02:33:39.338Z,4.78
2018-07-16T02:34:11.997Z,4.85
2018-07-16T02:34:44.655Z,5.00
2018-07-16T02:35:17.339Z,4.90
2018-07-16T02:35:50.021Z,5.25
2018-07-16T02:36:22.663Z,5.05
2018-07-16T02:36:55.315Z,4.65
2018-07-16T02:37:28.027Z,4.83
2018-07-16T02:38:00.686Z,4.90
2018-07-16T02:38:33.440Z,5.40
2018-07-16T02:39:06.114Z,4.55
2018-07-16T02:39:38.867Z,4.55
2018-07-16T02:40:11.522Z,5.20
2018-07-16T02:40:44.194Z,5.03
2018-07-16T02:41:16.916Z,5.40
2018-07-16T02:41:49.559Z,5.53
2018-07-16T02:42:22.222Z,5.00
2018-07-16T02:42:55.243Z,5.08
2018-07-16T02:43:28.161Z,4.47
2018-07-16T02:44:00.931Z,5.10
2018-07-16T02:44:33.638Z,5.60
2018-07-16T02:45:06.242Z,5.00
2018-07-16T02:45:38.872Z,5.40
2018-07-16T02:46:11.550Z,5.17
2018-07-16T02:46:44.226Z,5.35
2018-07-16T02:47:16.887Z,5.00
2018-07-16T02:47:49.894Z,5.08
2018-07-16T02:48:22.578Z,4.85
2018-07-16T02:48:55.226Z,4.97
2018-07-16T02:49:27.813Z,5.40
2018-07-16T02:50:00.481Z,5.37
2018-07-16T02:50:33.114Z,4.85
2018-07-16T02:51:05.818Z,4.85
2018-07-16T02:51:38.471Z,4.62
2018-07-16T02:52:11.131Z,5.50
2018-07-16T02:52:43.774Z,4.95
2018-07-16T02:53:16.511Z,4.75
2018-07-16T02:53:49.179Z,5.10
2018-07-16T02:54:21.939Z,4.75
2018-07-16T02:54:54.566Z,4.87
2018-07-16T02:55:27.195Z,4.72
2018-07-16T02:55:59.898Z,4.90
2018-07-16T02:56:32.671Z,5.45
2018-07-16T02:57:05.252Z,5.42
2018-07-16T02:57:37.942Z,5.10
2018-07-16T02:58:10.618Z,5.00
2018-07-16T02:58:43.283Z,5.17
2018-07-16T02:59:15.974Z,6.03
2018-07-16T02:59:48.667Z,4.28
2018-07-16T03:00:21.392Z,5.62
2018-07-16T03:00:54.043Z,5.42
2018-07-16T03:01:26.711Z,5.00
2018-07-16T03:02:00.987Z,5.33
2018-07-16T03:02:35.907Z,5.15
2018-07-16T03:03:08.644Z,5.58
2018-07-16T03:03:41.319Z,5.40
2018-07-16T03:04:13.998Z,5.67
2018-07-16T03:04:46.638Z,5.70
2018-07-16T03:05:20.491Z,5.17
2018-07-16T03:05:53.164Z,5.33
2018-07-16T03:06:25.805Z,5.08
2018-07-16T03:06:58.482Z,4.92
2018-07-16T03:07:31.166Z,5.97
2018-07-16T03:08:03.856Z,4.95
2018-07-16T03:08:36.530Z,5.72
2018-07-16T03:09:09.327Z,5.85
2018-07-16T03:09:41.986Z,6.45
2018-07-16T03:10:14.670Z,6.20
2018-07-16T03:10:47.342Z,5.55
2018-07-16T03:11:20.023Z,5.37
2018-07-16T03:11:52.693Z,5.92
2018-07-16T03:12:25.360Z,5.10
2018-07-16T03:12:58.019Z,5.78
2018-07-16T03:13:30.657Z,5.30
2018-07-16T03:14:03.334Z,5.15
2018-07-16T03:14:36.079Z,5.75
2018-07-16T03:15:08.730Z,5.30
2018-07-16T03:15:41.403Z,6.10
2018-07-16T03:16:14.094Z,5.72
2018-07-16T03:16:46.779Z,6.42
2018-07-16T03:17:19.563Z,5.33
2018-07-16T03:17:52.325Z,5.70
2018-07-16T03:18:25.024Z,5.90
2018-07-16T03:18:57.695Z,6.10
2018-07-16T03:19:30.362Z,5.90
2018-07-16T03:20:03.211Z,5.37
2018-07-16T03:20:35.882Z,5.50
2018-07-16T03:21:08.547Z,5.80
2018-07-16T03:21:41.207Z,5.78
2018-07-16T03:22:13.890Z,5.50
2018-07-16T03:22:46.543Z,5.60
2018-07-16T03:23:19.186Z,5.83
2018-07-16T03:23:51.881Z,5.75
2018-07-16T03:24:24.559Z,5.20
2018-07-16T03:24:57.232Z,6.33
2018-07-16T03:25:29.926Z,5.33
2018-07-16T03:26:02.590Z,5.80
2018-07-16T03:26:35.251Z,6.10
2018-07-16T03:27:07.899Z,5.70
2018-07-16T03:27:40.624Z,5.92
2018-07-16T03:28:13.272Z,5.50
2018-07-16T03:28:45.946Z,6.25
2018-07-16T03:29:18.643Z,5.42
2018-07-16T03:29:51.407Z,5.28
2018-07-16T03:30:24.091Z,5.75
2018-07-16T03:30:56.779Z,5.25
2018-07-16T03:31:29.491Z,4.40
2018-07-16T03:32:02.155Z,5.55
2018-07-16T03:32:34.999Z,5.40
2018-07-16T03:33:07.712Z,6.10
2018-07-16T03:33:40.417Z,5.45
2018-07-16T03:34:13.099Z,6.37
2018-07-16T03:34:45.766Z,5.33
2018-07-16T03:35:18.462Z,6.15
2018-07-16T03:35:51.115Z,6.42
2018-07-16T03:36:23.786Z,5.72
2018-07-16T03:36:56.435Z,6.92
2018-07-16T03:37:29.166Z,6.50
2018-07-16T03:38:01.798Z,5.58
2018-07-16T03:38:34.535Z,6.15
2018-07-16T03:39:08.254Z,6.72
2018-07-16T03:39:40.909Z,6.28
2018-07-16T03:40:13.627Z,6.28
2018-07-16T03:40:46.263Z,5.95
2018-07-16T03:41:18.939Z,6.50
2018-07-16T03:41:51.591Z,6.03
2018-07-16T03:42:24.286Z,5.65
2018-07-16T03:42:56.938Z,6.55
2018-07-16T03:43:29.510Z,6.90
2018-07-16T03:44:02.187Z,6.40
2018-07-16T03:44:34.875Z,6.83
2018-07-16T03:45:07.551Z,6.30
2018-07-16T03:45:40.210Z,7.17
2018-07-16T03:46:12.786Z,6.20
2018-07-16T03:46:45.439Z,6.70
2018-07-16T03:47:18.102Z,6.17
2018-07-16T03:47:50.738Z,7.05
2018-07-16T03:48:23.466Z,6.55
2018-07-16T03:48:56.147Z,7.25
2018-07-16T03:49:28.871Z,7.10
2018-07-16T03:50:01.543Z,6.78
2018-07-16T03:50:34.242Z,6.45
2018-07-16T03:51:07.107Z,6.97
2018-07-16T03:51:39.782Z,7.53
2018-07-16T03:52:12.455Z,6.25
2018-07-16T03:52:45.131Z,7.35
2018-07-16T03:53:17.699Z,6.97
2018-07-16T03:53:50.339Z,6.42
2018-07-16T03:54:23.063Z,6.90
2018-07-16T03:54:55.692Z,7.40
2018-07-16T03:55:28.354Z,6.00
2018-07-16T03:56:00.995Z,5.83
2018-07-16T03:56:33.670Z,6.83
2018-07-16T03:57:06.387Z,5.75
2018-07-16T03:57:39.018Z,5.90
2018-07-16T03:58:11.663Z,6.22
2018-07-16T03:58:44.326Z,6.42
2018-07-16T03:59:17.018Z,6.08
2018-07-16T03:59:49.722Z,6.83
2018-07-16T04:00:22.395Z,5.33
2018-07-16T04:00:55.050Z,6.17
2018-07-16T04:01:27.748Z,6.08
2018-07-16T04:02:00.510Z,6.30
2018-07-16T04:02:33.227Z,6.83
2018-07-16T04:03:05.906Z,6.85
2018-07-16T04:03:38.539Z,6.05
2018-07-16T04:04:11.162Z,5.67
2018-07-16T04:04:43.839Z,6.78
2018-07-16T04:05:16.499Z,6.50
2018-07-16T04:05:49.182Z,5.97
2018-07-16T04:06:21.913Z,5.95
2018-07-16T04:06:54.586Z,6.55
2018-07-16T04:07:27.565Z,5.95
2018-07-16T04:08:00.230Z,6.20
2018-07-16T04:08:32.894Z,6.20
2018-07-16T04:09:06.416Z,6.05
2018-07-16T04:09:39.077Z,6.37
2018-07-16T04:10:11.723Z,5.87
2018-07-16T04:10:44.423Z,7.42
2018-07-16T04:11:17.151Z,6.35
2018-07-16T04:11:49.824Z,7.12
2018-07-16T04:12:22.526Z,6.15
2018-07-16T04:12:55.219Z,7.40
2018-07-16T04:13:27.891Z,7.00
2018-07-16T04:14:00.847Z,7.00
2018-07-16T04:14:33.505Z,7.05
2018-07-16T04:15:06.178Z,6.20
2018-07-16T04:15:38.847Z,6.50
2018-07-16T04:16:11.510Z,7.80
2018-07-16T04:16:44.210Z,6.90
2018-07-16T04:17:16.924Z,7.15
2018-07-16T04:17:49.554Z,6.80
2018-07-16T04:18:22.215Z,6.33
2018-07-16T04:18:54.873Z,6.78
2018-07-16T04:19:27.546Z,7.15
2018-07-16T04:20:00.230Z,6.78
2018-07-16T04:20:32.814Z,7.17
2018-07-16T04:21:05.502Z,6.35
2018-07-16T04:21:38.178Z,6.40
2018-07-16T04:22:10.863Z,6.60
2018-07-16T04:22:43.527Z,6.28
2018-07-16T04:23:16.578Z,6.47
2018-07-16T04:23:49.281Z,6.92
2018-07-16T04:24:21.986Z,6.97
2018-07-16T04:24:54.534Z,7.05
2018-07-16T04:25:27.199Z,7.12
2018-07-16T04:25:59.954Z,7.95
2018-07-16T04:26:32.627Z,7.85
2018-07-16T04:27:05.679Z,8.18
2018-07-16T04:27:38.367Z,8.63
2018-07-16T04:28:11.341Z,8.15
2018-07-16T04:28:44.011Z,9.28
2018-07-16T04:29:16.664Z,8.45
2018-07-16T04:29:49.338Z,8.05
2018-07-16T04:30:22.004Z,9.20
2018-07-16T04:30:54.703Z,9.20
2018-07-16T04:31:27.333Z,8.38
2018-07-16T04:31:59.983Z,8.63
2018-07-16T04:32:32.658Z,8.78
2018-07-16T04:33:05.367Z,9.00
2018-07-16T04:33:38.249Z,9.85
2018-07-16T04:34:10.914Z,9.15
2018-07-16T04:34:43.638Z,9.33
2018-07-16T04:35:16.307Z,9.45
2018-07-16T04:35:48.986Z,9.10
2018-07-16T04:36:21.636Z,8.78
2018-07-16T04:36:54.318Z,10.05
2018-07-16T04:37:27.018Z,8.55
2018-07-16T04:37:59.675Z,8.90
2018-07-16T04:38:32.511Z,8.85
2018-07-16T04:39:05.991Z,9.65
2018-07-16T04:39:38.626Z,8.90
2018-07-16T04:40:11.262Z,8.65
2018-07-16T04:40:43.927Z,8.50
2018-07-16T04:41:16.583Z,9.45
2018-07-16T04:41:49.238Z,9.40
2018-07-16T04:42:21.890Z,10.08
2018-07-16T04:42:54.666Z,10.30
2018-07-16T04:43:27.299Z,8.05
2018-07-16T04:43:59.974Z,9.23
2018-07-16T04:44:32.618Z,9.10
2018-07-16T04:45:05.302Z,8.48
2018-07-16T04:45:37.991Z,9.40
2018-07-16T04:46:10.914Z,9.53
2018-07-16T04:46:43.595Z,9.20
2018-07-16T04:47:16.288Z,10.48
2018-07-16T04:47:49.055Z,9.75
2018-07-16T04:48:21.806Z,9.83
2018-07-16T04:48:54.454Z,9.48
2018-07-16T04:49:27.106Z,9.48
2018-07-16T04:49:59.738Z,10.60
2018-07-16T04:50:32.378Z,9.93
2018-07-16T04:51:05.054Z,9.63
2018-07-16T04:51:37.746Z,9.05
2018-07-16T04:52:10.407Z,9.68
2018-07-16T04:52:43.072Z,9.15
2018-07-16T04:53:15.774Z,9.05
2018-07-16T04:53:48.435Z,10.03
2018-07-16T04:54:21.083Z,9.98
2018-07-16T04:54:53.791Z,9.13
2018-07-16T04:55:26.451Z,9.75
2018-07-16T04:55:59.130Z,9.43
2018-07-16T04:56:31.763Z,9.78
2018-07-16T04:57:04.547Z,9.68
2018-07-16T04:57:37.222Z,9.05
2018-07-16T04:58:09.961Z,9.88
2018-07-16T04:58:42.567Z,9.88
2018-07-16T04:59:15.286Z,9.53
2018-07-16T04:59:47.994Z,9.65
2018-07-16T05:00:20.726Z,9.53
2018-07-16T05:00:53.421Z,9.80
2018-07-16T05:01:26.119Z,8.33
2018-07-16T05:01:58.851Z,9.63
2018-07-16T05:02:31.566Z,9.03
2018-07-16T05:03:04.340Z,9.73
2018-07-16T05:03:37.013Z,8.88
2018-07-16T05:04:09.650Z,9.35
2018-07-16T05:04:42.214Z,9.00
2018-07-16T05:05:14.898Z,9.25
2018-07-16T05:05:47.607Z,9.33
2018-07-16T05:06:20.307Z,10.30
2018-07-16T05:06:52.969Z,10.03
2018-07-16T05:07:25.646Z,9.68
2018-07-16T05:07:58.350Z,11.20
2018-07-16T05:08:31.256Z,10.13
2018-07-16T05:09:04.935Z,10.40
2018-07-16T05:09:37.605Z,9.78
2018-07-16T05:10:10.294Z,8.25
2018-07-16T05:10:42.947Z,8.73
2018-07-16T05:11:15.642Z,9.45
2018-07-16T05:11:48.294Z,9.55
2018-07-16T05:12:21.014Z,9.55
2018-07-16T05:12:53.674Z,9.73
2018-07-16T05:13:26.338Z,10.90
2018-07-16T05:13:59.006Z,10.90
2018-07-16T05:14:31.733Z,9.65
2018-07-16T05:15:04.374Z,11.03
2018-07-16T05:15:37.018Z,9.65
2018-07-16T05:16:09.688Z,9.63
2018-07-16T05:16:42.396Z,9.70
2018-07-16T05:17:15.063Z,10.23
2018-07-16T05:17:47.750Z,10.80
2018-07-16T05:18:20.443Z,10.10
2018-07-16T05:18:53.077Z,10.20
2018-07-16T05:19:25.892Z,10.90
2018-07-16T05:19:58.573Z,11.10
2018-07-16T05:20:31.454Z,11.05
2018-07-16T05:21:04.136Z,10.35
2018-07-16T05:21:36.766Z,9.60
2018-07-16T05:22:09.418Z,11.33
2018-07-16T05:22:42.063Z,10.20
2018-07-16T05:23:14.771Z,12.05
2018-07-16T05:23:47.431Z,10.72
2018-07-16T05:24:20.122Z,11.00
2018-07-16T05:24:52.766Z,10.53
2018-07-16T05:25:25.410Z,10.90
2018-07-16T05:25:58.080Z,9.85
2018-07-16T05:26:30.739Z,10.03
2018-07-16T05:27:03.601Z,10.55
2018-07-16T05:27:36.343Z,9.40
2018-07-16T05:28:08.987Z,10.55
2018-07-16T05:28:41.650Z,9.98
2018-07-16T05:29:14.282Z,10.85
2018-07-16T05:29:46.903Z,10.50
2018-07-16T05:30:19.594Z,9.78
2018-07-16T05:30:52.259Z,10.50
2018-07-16T05:31:24.938Z,10.05
2018-07-16T05:31:57.636Z,10.85
2018-07-16T05:32:30.533Z,10.38
2018-07-16T05:33:03.051Z,10.48
2018-07-16T05:33:35.711Z,9.63
2018-07-16T05:34:08.355Z,9.15
2018-07-16T05:34:41.015Z,9.48
2018-07-16T05:35:13.694Z,10.18
2018-07-16T05:35:46.339Z,11.15
2018-07-16T05:36:18.986Z,10.35
2018-07-16T05:36:51.638Z,9.85
2018-07-16T05:37:24.458Z,9.68
2018-07-16T05:37:57.107Z,9.55
2018-07-16T05:38:30.123Z,9.03
2018-07-16T05:39:03.090Z,9.35
2018-07-16T05:39:35.758Z,9.38
2018-07-16T05:40:08.447Z,8.83
2018-07-16T05:40:41.094Z,10.43
2018-07-16T05:41:13.779Z,8.28
2018-07-16T05:41:46.446Z,9.15
2018-07-16T05:42:19.114Z,10.90
2018-07-16T05:42:51.775Z,9.33
2018-07-16T05:43:24.462Z,9.48
2018-07-16T05:43:57.149Z,9.55
2018-07-16T05:44:29.906Z,10.28
2018-07-16T05:45:02.571Z,10.35
2018-07-16T05:45:35.227Z,10.82
2018-07-16T05:46:07.883Z,10.58
2018-07-16T05:46:40.531Z,9.50
2018-07-16T05:47:13.570Z,10.45
2018-07-16T05:47:46.262Z,10.08
2018-07-16T05:48:18.915Z,10.25
2018-07-16T05:48:51.578Z,10.85
2018-07-16T05:49:24.270Z,10.58
2018-07-16T05:49:56.939Z,9.18
2018-07-16T05:50:29.607Z,9.83
2018-07-16T05:51:02.291Z,10.10
2018-07-16T05:51:34.970Z,9.08
2018-07-16T05:52:07.654Z,10.15
2018-07-16T05:52:40.314Z,10.45
2018-07-16T05:53:13.154Z,9.38
2018-07-16T05:53:45.880Z,9.85
2018-07-16T05:54:18.588Z,9.83
2018-07-16T05:54:51.293Z,8.55
2018-07-16T05:55:23.979Z,10.15
2018-07-16T05:55:56.674Z,9.10
2018-07-16T05:56:29.367Z,9.10
2018-07-16T05:57:02.027Z,10.45
2018-07-16T05:57:34.762Z,9.15
2018-07-16T05:58:07.441Z,9.05
2018-07-16T05:58:40.103Z,10.35
2018-07-16T05:59:12.768Z,9.83
2018-07-16T05:59:45.463Z,10.48
2018-07-16T06:00:18.154Z,8.95
2018-07-16T06:00:50.863Z,9.33
2018-07-16T06:01:23.519Z,8.33
2018-07-16T06:01:56.219Z,8.60
2018-07-16T06:02:28.942Z,8.70
2018-07-16T06:03:01.599Z,10.03
2018-07-16T06:03:34.323Z,9.18
2018-07-16T06:04:07.039Z,8.63
2018-07-16T06:04:39.730Z,9.23
2018-07-16T06:05:12.412Z,9.10
2018-07-16T06:05:45.131Z,8.40
2018-07-16T06:06:17.803Z,9.87
2018-07-16T06:06:50.483Z,8.00
2018-07-16T06:07:23.155Z,10.00
2018-07-16T06:07:55.823Z,9.20
2018-07-16T06:08:28.486Z,8.88
2018-07-16T06:09:01.543Z,9.27
2018-07-16T06:09:34.218Z,9.03
2018-07-16T06:10:06.919Z,9.27
2018-07-16T06:10:39.583Z,8.90
2018-07-16T06:11:12.267Z,9.13
2018-07-16T06:11:44.935Z,9.00
2018-07-16T06:12:17.587Z,8.37
2018-07-16T06:12:50.247Z,9.60
2018-07-16T06:13:22.918Z,8.73
2018-07-16T06:13:55.578Z,8.30
2018-07-16T06:14:28.346Z,8.60
2018-07-16T06:15:01.088Z,9.00
2018-07-16T06:15:33.747Z,9.30
2018-07-16T06:16:06.462Z,6.93
2018-07-16T06:16:39.134Z,7.90
2018-07-16T06:17:12.031Z,8.53
2018-07-16T06:17:44.704Z,8.40
2018-07-16T06:18:17.666Z,8.30
2018-07-16T06:18:50.378Z,9.10
2018-07-16T06:19:23.314Z,8.97
2018-07-16T06:19:56.029Z,8.30
2018-07-16T06:20:28.722Z,7.60
2018-07-16T06:21:01.386Z,8.70
2018-07-16T06:21:34.071Z,7.90
2018-07-16T06:22:06.971Z,8.70
2018-07-16T06:22:40.058Z,8.53
2018-07-16T06:23:12.719Z,9.97
2018-07-16T06:23:45.395Z,9.10
2018-07-16T06:24:18.066Z,9.40
2018-07-16T06:24:50.738Z,8.90
2018-07-16T06:25:23.398Z,8.80
2018-07-16T06:25:56.046Z,8.70
2018-07-16T06:26:28.723Z,7.83
2018-07-16T06:27:01.419Z,8.60
2018-07-16T06:27:34.074Z,8.40
2018-07-16T06:28:06.758Z,8.00
2018-07-16T06:28:39.450Z,8.37
2018-07-16T06:29:12.082Z,8.33
2018-07-16T06:29:44.990Z,8.30
2018-07-16T06:30:17.758Z,8.17
2018-07-16T06:30:50.426Z,8.73
2018-07-16T06:31:23.371Z,8.13
2018-07-16T06:31:56.051Z,7.67
2018-07-16T06:32:28.735Z,7.37
2018-07-16T06:33:01.431Z,6.93
2018-07-16T06:33:34.066Z,7.70
2018-07-16T06:34:06.760Z,7.17
2018-07-16T06:34:39.418Z,7.23
2018-07-16T06:35:12.079Z,7.17
2018-07-16T06:35:44.817Z,7.00
2018-07-16T06:36:17.503Z,6.90
2018-07-16T06:36:50.170Z,6.07
2018-07-16T06:37:22.823Z,6.30
2018-07-16T06:37:55.491Z,7.13
2018-07-16T06:38:28.182Z,6.07
2018-07-16T06:39:01.111Z,7.20
2018-07-16T06:39:33.797Z,7.10
2018-07-16T06:40:06.493Z,6.50
2018-07-16T06:40:39.247Z,7.47
2018-07-16T06:41:12.348Z,6.90
2018-07-16T06:41:44.723Z,6.37
2018-07-16T06:42:17.398Z,7.40
2018-07-16T06:42:50.071Z,7.67
2018-07-16T06:43:22.735Z,7.80
2018-07-16T06:43:55.410Z,6.77
2018-07-16T06:44:28.055Z,6.50
2018-07-16T06:45:00.743Z,6.70
2018-07-16T06:45:33.450Z,6.10
2018-07-16T06:46:06.143Z,5.63
2018-07-16T06:46:38.806Z,6.00
2018-07-16T06:47:11.470Z,5.40
2018-07-16T06:47:44.122Z,5.63
2018-07-16T06:48:16.815Z,4.83
2018-07-16T06:48:49.489Z,5.83
2018-07-16T06:49:22.185Z,4.97
2018-07-16T06:49:54.827Z,5.70
2018-07-16T06:50:27.487Z,5.60
2018-07-16T06:51:00.202Z,5.10
2018-07-16T06:51:33.067Z,5.70
2018-07-16T06:52:05.798Z,4.97
2018-07-16T06:52:38.467Z,4.43
2018-07-16T06:53:11.127Z,5.30
2018-07-16T06:53:43.788Z,4.80
2018-07-16T06:54:16.461Z,5.60
2018-07-16T06:54:49.144Z,5.00
2018-07-16T06:55:21.807Z,4.80
2018-07-16T06:55:54.498Z,5.20
2018-07-16T06:56:27.215Z,5.27
2018-07-16T06:56:59.890Z,6.00
2018-07-16T06:57:32.651Z,5.70
2018-07-16T06:58:05.327Z,4.37
2018-07-16T06:58:37.974Z,4.60
2018-07-16T06:59:10.683Z,5.27
2018-07-16T06:59:43.332Z,4.43
2018-07-16T07:00:16.063Z,5.57
2018-07-16T07:00:48.723Z,5.17
2018-07-16T07:01:21.369Z,5.03
2018-07-16T07:01:54.065Z,5.13
2018-07-16T07:02:26.748Z,4.20
2018-07-16T07:02:59.475Z,4.30
2018-07-16T07:03:32.183Z,4.90
2018-07-16T07:04:04.865Z,5.10
2018-07-16T07:04:37.542Z,4.90
2018-07-16T07:05:10.251Z,4.20
2018-07-16T07:05:42.907Z,4.57
2018-07-16T07:06:15.599Z,5.10
2018-07-16T07:06:48.260Z,5.97
2018-07-16T07:07:20.919Z,4.60
2018-07-16T07:07:53.578Z,4.57
2018-07-16T07:08:26.239Z,5.07
2018-07-16T07:08:59.263Z,4.90
2018-07-16T07:09:31.940Z,5.27
2018-07-16T07:10:04.893Z,4.60
2018-07-16T07:10:37.543Z,4.13
2018-07-16T07:11:10.275Z,5.80
2018-07-16T07:11:42.943Z,4.83
2018-07-16T07:12:15.684Z,4.37
2018-07-16T07:12:48.346Z,4.90
2018-07-16T07:13:21.030Z,4.53
2018-07-16T07:13:53.663Z,4.70
2018-07-16T07:14:26.443Z,3.63